Weather observations for the past three days for
Panola County Airport-Sharpe Field
Metric (Imperial)
Date Time (cdt) Wind (kph) Vis. (km) Weather Sky Cond. Temperature (ºC) Relative Humidity Wind Chill (°C) Heat Index (°C) Pressure Precipitation (cm)
Air Dwpt 6 hour altimeter (cm) sea level (mb) 1 hr 3 hr 6 hr
Max. Min.
31 12:35 E 11 16.09 Partly Cloudy SCT055 SCT070 36.4 19.5 37% 39 76.3 0.0
31 12:15 N 11 16.09 Mostly Cloudy SCT055 BKN070 33.8 20.2 45% 36 76.33 0.0
31 11:55 E 7 16.09 Partly Cloudy SCT055 33.4 20.1 46% 36 76.35 0.0
31 11:35 NE 7 16.09 Partly Cloudy SCT055 34.2 20.2 44% 37 76.35 0.0
31 11:15 NW 9 16.09 Fair CLR 34.1 19.9 43% 36 76.38 0.0
31 10:55 E 7 16.09 Fair CLR 33.3 20.1 46% 36 76.38 0.0
31 10:35 SW 6 16.09 Partly Cloudy SCT070 32.4 19.6 47% 34 76.38 0.0
31 10:15 Calm 16.09 Partly Cloudy SCT070 32.5 19.3 46% 34 76.38 0.0
31 09:55 Calm 16.09 Partly Cloudy SCT070 30.8 21.6 58% 34 76.38 0.0
31 09:35 Calm 16.09 Fair CLR 29.7 21.9 63% 33 76.35 0.0
31 09:15 Calm 16.09 Fair CLR 29.2 21.8 64% 32 76.35 0.0
31 08:55 Calm 16.09 Fair CLR 27.5 21.4 69% 30 76.35 0.0
31 08:35 SE 6 16.09 Fair CLR 26.5 21.1 72% 28 76.33 0.0
31 08:15 Calm 16.09 Fair CLR 25.4 20.8 76% 27 76.33 0.0
31 07:55 Calm 16.09 Fair CLR 23.8 20.8 83% 76.3 0.0
31 07:35 Calm 16.09 Fair CLR 22.2 20 87% 76.3 0.0
31 07:15 Calm 16.09 Fair CLR 21.7 19.8 89% 76.28 0.0
31 06:55 Calm 16.09 Fair CLR 21.7 19.6 26 21.5 88% 76.25 0.0
31 06:35 Calm 16.09 Fair CLR 22 19.7 87% 76.23 0.0
31 06:15 Calm 16.09 Fair CLR 22.2 19.7 86% 76.23 0.0
31 05:55 Calm 16.09 Fair CLR 22.1 19.7 86% 76.23 0.0
31 05:35 Calm 16.09 Fair CLR 22.5 19.8 85% 76.23 0.0
31 05:15 Calm 16.09 Fair CLR 22.9 19.8 83% 76.23 0.0
31 04:55 Calm 16.09 Fair CLR 23.2 19.9 82% 76.23 0.0
31 04:35 Calm 16.09 Fair CLR 23.2 19.9 82% 76.2 0.0
31 04:15 Calm 16.09 Fair CLR 23.3 20 82% 76.2 0.0
31 03:55 Calm 16.09 Fair CLR 23.4 19.9 81% 76.2 0.0
31 03:35 S 6 16.09 Partly Cloudy SCT095 23.8 20 79% 76.17 0.0
31 03:15 Calm 16.09 Partly Cloudy SCT095 23.6 20.1 81% 76.2 0.0
31 02:55 Calm 16.09 Partly Cloudy SCT095 24.2 20 77% 25 76.2 0.0
31 02:35 Calm 16.09 Partly Cloudy SCT095 24.7 19.9 75% 26 76.2 0.0
31 02:15 Calm 16.09 Partly Cloudy SCT095 24.6 20 76% 25 76.2 0.0
31 01:55 Calm 16.09 Partly Cloudy SCT095 25.3 20 73% 26 76.2 0.0
31 01:35 E 6 16.09 Partly Cloudy SCT090 25.3 20 73% 26 76.2 0.0
31 01:15 Calm 16.09 Partly Cloudy SCT090 25.6 19.8 70% 27 76.2 0.0
31 00:55 Calm 16.09 Fair CLR 26.3 19.8 36.4 25.9 68% 28 76.2 0.0
31 00:35 S 7 16.09 Fair CLR 26.5 19.8 67% 28 76.2 0.0
31 00:15 Calm 16.09 Fair CLR 27.1 19.4 63% 28 76.17 0.0
30 23:55 SE 6 16.09 Fair CLR 27.4 19.4 62% 29 76.17 0.0
30 23:35 Calm 16.09 Fair CLR 28.6 19.2 57% 30 76.17 0.0
30 23:15 SE 6 16.09 Fair CLR 28.8 19.2 56% 30 76.17 0.0
30 22:55 E 7 16.09 Fair CLR 29.3 19.1 54% 31 76.17 0.0
30 22:35 SE 6 16.09 Fair CLR 29.2 19.1 55% 31 76.15 0.0
30 22:15 Calm 16.09 Fair CLR 29.4 18.9 53% 31 76.12 0.0
30 21:55 Calm 16.09 Fair CLR 29.7 18.8 52% 31 76.12 0.0
30 21:35 Calm 16.09 Fair CLR 30.3 18.7 50% 31 76.1 0.0
30 21:15 Calm 16.09 Fair CLR 30.9 18.6 48% 32 76.07 0.0
30 20:55 SE 6 8.05 Fair with Haze CLR 31 18.4 47% 32 76.05 0.0
30 20:35 Calm 16.09 Fair CLR 31.5 18.3 45% 33 76.02 0.0
30 20:15 Calm 16.09 Fair CLR 32.7 18.2 42% 34 76.02 0.0
30 19:55 Calm 16.09 Fair CLR 33.5 18.2 40% 35 76 0.0
30 19:35 E 7 16.09 Fair CLR 34.4 18.1 38% 36 76 0.0
30 19:15 SE 7 16.09 Fair CLR 35.6 17.4 34% 37 76 0.0
30 18:55 E 7 11.27 Fair CLR 36.5 16.9 38.9 34.7 31% 37 76 0.0
30 18:35 SE 7 5.63 Fair with Haze CLR 36.9 16.5 30% 38 76 0.0
30 18:15 SE 11 16.09 Fair CLR 37.5 16.9 30% 38 76 0.0
30 17:55 SE 7 16.09 Fair CLR 37.7 16.8 29% 39 76 0.0
30 17:35 E 9 16.09 Fair CLR 37.8 16.7 29% 39 76 0.0
30 17:15 SE 7 16.09 Fair CLR 38 17 29% 39 76 0.0
30 16:55 E 11 16.09 Partly Cloudy SCT110 37.9 17.1 29% 39 76 0.0
30 16:35 E 6 16.09 Partly Cloudy SCT120 38.3 17.4 29% 40 76 0.0
30 16:15 N 13 16.09 Mostly Cloudy BKN110 38.2 17.1 29% 39 76.02 0.0
30 15:55 SE 13 16.09 Partly Cloudy SCT110 38.1 17.4 30% 39 76.05 0.0
30 15:35 Calm 16.09 Fair CLR 38.2 16 27% 39 76.07 0.0
30 15:15 NE 7 11.27 Fair CLR 38.2 15.4 26% 38 76.1 0.0
30 14:55 SW 7 16.09 Fair CLR 37 17 31% 38 76.12 0.0
30 14:35 Calm 16.09 Fair CLR 35.5 17.4 34% 36 76.15 0.0
30 14:15 SW 6 16.09 Partly Cloudy SCT110 35.5 18.4 36% 37 76.17 0.0
30 13:55 SE 11 16.09 Fair CLR 35.4 18.4 37% 37 76.2 0.0
30 13:35 Calm 16.09 Fair CLR 34.8 18.5 38% 36 76.2 0.0
30 13:15 W 6 16.09 Fair CLR 35.7 19 37% 38 76.23 0.0
30 12:55 SW 7 16.09 Fair CLR 35.5 19.4 35.9 22 39% 38 76.25 0.0
30 12:35 E 6 16.09 Fair CLR 35.2 19.3 39% 37 76.25 0.0
30 12:15 W 11 16.09 Fair CLR 35.3 19.3 39% 37 76.28 0.0
30 11:55 SW 9 16.09 Fair CLR 34.9 19.6 41% 37 76.28 0.0
30 11:35 SW 13 16.09 Fair CLR 34.4 19.5 41% 37 76.3 0.0
30 11:15 SW 13 16.09 Fair CLR 34 19.2 42% 36 76.33 0.0
30 10:55 S 9 16.09 Fair CLR 33.1 19.4 44% 35 76.33 0.0
30 10:35 SW 11 16.09 Fair CLR 32.5 20.3 49% 35 76.33 0.0
30 10:15 SW 7 16.09 Fair CLR 31.6 21.3 54% 35 76.33 0.0
30 09:55 W 6 16.09 Fair CLR 30.4 21.9 60% 34 76.33 0.0
30 09:35 SW 9 16.09 Fair CLR 29.7 22.3 65% 33 76.33 0.0
30 09:15 S 6 16.09 Fair CLR 28.6 22.7 70% 32 76.35 0.0
30 08:55 SE 6 16.09 Fair CLR 27.5 22.4 74% 30 76.35 0.0
30 08:35 Calm 16.09 Partly Cloudy SCT065 26.9 22.3 76% 29 76.35 0.0
30 08:15 Calm 16.09 Overcast OVC065 25.6 21.5 78% 27 76.33 0.0
30 07:55 Calm 16.09 Overcast OVC065 24.2 21.2 83% 24 76.33 0.0
30 07:35 Calm 16.09 Mostly Cloudy BKN065 22.8 20.8 89% 76.33 0.0
30 07:15 Calm 16.09 Partly Cloudy SCT065 22.1 20 88% 76.3 0.0
30 06:55 Calm 16.09 Fair CLR 22.2 20 26.7 22.1 87% 76.28 0.0
30 06:35 Calm 16.09 Fair CLR 22.9 20.1 84% 76.25 0.0
30 06:15 Calm 16.09 Fair CLR 23 20 83% 76.25 0.0
30 05:55 Calm 16.09 Fair CLR 22.8 19.8 83% 76.25 0.0
30 05:35 Calm 16.09 Partly Cloudy SCT065 SCT075 SCT085 23.2 20 82% 76.23 0.0
30 05:15 S 6 16.09 Partly Cloudy SCT065 23.7 20.1 80% 76.23 0.0
30 04:55 S 6 16.09 Overcast OVC065 23.8 19.4 76% 76.23 0.0
30 04:35 Calm 16.09 Mostly Cloudy BKN065 23.5 19.4 78% 76.23 0.0
30 04:15 Calm 16.09 Fair CLR 23.5 19 76% 76.2 0.0
30 03:55 Calm 16.09 Fair CLR 23.9 18.9 74% 25 76.23 0.0
30 03:35 Calm 16.09 Fair CLR 24 18.8 73% 25 76.2 0.0
30 03:15 Calm 16.09 Fair CLR 24.7 18.8 70% 26 76.23 0.0
30 02:55 Calm 16.09 Fair CLR 23.7 18.6 73% 76.23 0.0
30 02:35 Calm 16.09 Fair CLR 24.2 18.5 71% 25 76.23 0.0
30 02:15 Calm 16.09 Fair CLR 24.2 18.4 70% 25 76.23 0.0
30 01:55 Calm 16.09 Fair CLR 24.4 18.5 70% 25 76.23 0.0
30 01:35 Calm 16.09 Fair CLR 25 18.2 66% 26 76.23 0.0
30 01:15 Calm 16.09 Fair CLR 25.6 18.2 64% 27 76.23 0.0
30 00:55 SE 7 16.09 Fair CLR 26.6 17.5 35.6 24.7 57% 27 76.23 0.0
30 00:35 Calm 16.09 Fair CLR 26.3 17.7 59% 27 76.23 0.0
30 00:15 Calm 16.09 Fair CLR 25.1 18.1 65% 26 76.23 0.0
29 23:55 Calm 16.09 Fair CLR 24.9 18.2 66% 26 76.23 0.0
29 23:35 Calm 16.09 Fair CLR 25.6 18 63% 27 76.23 0.0
29 23:15 Calm 16.09 Fair CLR 26 18.1 62% 27 76.23 0.0
29 22:55 Calm 16.09 Fair CLR 27.3 17.7 56% 28 76.23 0.0
29 22:35 Calm 16.09 Fair CLR 28.4 17.6 52% 29 76.23 0.0
29 22:15 SE 6 16.09 Fair CLR 29.1 17.4 49% 30 76.2 0.0
29 21:55 Calm 16.09 Fair CLR 29 17.4 50% 30 76.2 0.0
29 21:35 Calm 16.09 Fair CLR 28.4 17.3 51% 29 76.17 0.0
29 21:15 Calm 16.09 Fair CLR 28.2 17 51% 29 76.15 0.0
29 20:55 Calm 16.09 Fair CLR 29.1 17.2 49% 30 76.12 0.0
29 20:35 Calm 16.09 Fair CLR 29.4 16.8 47% 30 76.12 0.0
29 20:15 Calm 16.09 Fair CLR 30.7 16 41% 31 76.1 0.0
29 19:55 Calm 0.00 Fair CLR 32.5 15.7 36% 32 76.1 0.0
29 19:35 E 6 16.09 Fair CLR 33.8 15.3 33% 34 76.1 0.0
29 19:15 NE 6 16.09 Fair CLR 34.7 14.8 30% 34 76.1 0.0
29 18:55 NE 7 16.09 Fair CLR 35.6 14.4 38.8 35.2 28% 35 76.07 0.0
29 18:35 NE 9 16.09 Fair CLR 36.3 13.8 26% 36 76.07 0.0
29 18:15 E 7 16.09 Fair CLR 36.8 13.9 25% 36 76.07 0.0
29 17:55 NE 7 16.09 Fair CLR 37.1 14.1 25% 37 76.07 0.0
29 17:35 NE 9 16.09 Partly Cloudy SCT100 37.6 15.3 27% 38 76.07 0.0
29 17:15 NE 11 16.09 Partly Cloudy SCT100 37.6 15.3 27% 38 76.07 0.0
29 16:55 E 9 16.09 Mostly Cloudy BKN100 37.9 15.5 26% 38 76.1 0.0
29 16:35 NE 7 16.09 Mostly Cloudy BKN090 BKN110 37.1 16.5 29% 38 76.1 0.0
29 16:15 N 11 16.09 Partly Cloudy SCT090 SCT110 37.8 16.4 28% 39 76.1 0.0
29 15:55 Calm 16.09 Partly Cloudy SCT120 37.7 15.9 27% 38 76.12 0.0
29 15:35 Calm 16.09 Mostly Cloudy BKN110 36.3 16.8 31% 37 76.15 0.0
29 15:15 NE 13 16.09 Overcast OVC090 36.1 17.2 33% 37 76.17 0.0
29 14:55 NE 6 16.09 Overcast OVC090 38.2 16.9 28% 39 76.2 0.0
29 14:35 SW 7 16.09 Mostly Cloudy BKN080 37.7 16.2 28% 38 76.2 0.0
29 14:15 Calm 16.09 Partly Cloudy SCT080 SCT090 36.7 16.7 31% 37 76.23 0.0
29 13:55 N 9 16.09 Mostly Cloudy BKN080 36.7 17.6 32% 38 76.25 0.0
29 13:35 NW 11 16.09 Partly Cloudy SCT080 36.4 17.6 33% 38 76.28 0.0
29 13:15 SE 7 6.44 Partly Cloudy SCT095 36.2 16.7 31% 37 76.28 0.0
29 12:55 N 7 16.09 Partly Cloudy SCT070 SCT095 35.7 17.9 36.5 21.4 35% 37 76.33 0.0
29 12:35 W 13 16.09 Overcast BKN070 OVC085 35.2 19.3 39% 37 76.33 0.0
29 12:15 N 6 16.09 Partly Cloudy SCT060 SCT085 34.9 19 39% 37 76.35 0.0
29 11:55 NW 7 16.09 Partly Cloudy SCT085 34.9 19.4 40% 37 76.35 0.0
29 11:35 SW 9 16.09 Fair CLR 34.6 19.7 42% 37 76.38 0.0
29 11:15 SW 13 16.09 Fair CLR 34.5 19.7 42% 37 76.38 0.0
29 10:55 NW 7 16.09 Fair CLR 33.8 19.7 43% 36 76.38 0.0
29 10:35 Calm 16.09 Fair CLR 32.9 20 47% 35 76.38 0.0
29 10:15 NW 9 16.09 Fair CLR 32.3 20.1 49% 35 76.4 0.0
29 09:55 N 7 16.09 Fair CLR 31.4 20.3 52% 34 76.38 0.0
29 09:35 W 7 16.09 Fair CLR 30.4 20.3 55% 33 76.4 0.0
29 09:15 Calm 16.09 Fair CLR 29.5 20.7 59% 32 76.4 0.0
29 08:55 W 6 16.09 Fair CLR 28.4 21.4 66% 31 76.4 0.0
29 08:35 Calm 16.09 Fair CLR 26.9 21.7 73% 29 76.4 0.0
29 08:15 Calm 16.09 Fair CLR 25.1 22.1 84% 26 76.38 0.0
29 07:55 Calm 16.09 Fair CLR 23.3 21.5 90% 76.38 0.0
29 07:35 Calm 16.09 Fair CLR 22.1 21 94% 76.38 0.0
29 07:15 Calm 16.09 Fair CLR 21.7 20.6 94% 76.35 0.0
29 06:55 Calm 16.09 Fair CLR 21.5 20.2 25.1 21.4 92% 76.35 0.0
29 06:35 Calm 16.09 Partly Cloudy SCT075 21.6 20.4 93% 76.35 0.0
29 06:15 Calm 16.09 Mostly Cloudy SCT075 BKN095 21.8 20.4 92% 76.35 0.0
29 05:55 Calm 16.09 Mostly Cloudy BKN075 21.9 20.4 91% 76.35 0.0
29 05:35 Calm 16.09 Partly Cloudy SCT075 21.9 20.4 91% 76.35 0.0
29 05:15 Calm 16.09 Fair CLR 22.1 20.5 91% 76.35 0.0
29 04:55 Calm 16.09 Fair CLR 22.4 20.5 89% 76.33 0.0
29 04:35 Calm 16.09 Fair CLR 22.5 20.6 89% 76.33 0.0
29 04:15 Calm 16.09 Fair CLR 22.1 20.3 90% 76.3 0.0
29 03:55 Calm 16.09 Fair CLR 22.8 20.3 86% 76.3 0.0
29 03:35 Calm 16.09 Fair CLR 23.1 20.5 85% 76.3 0.0
29 03:15 Calm 16.09 Fair CLR 23.6 20.4 82% 76.3 0.0
29 02:55 Calm 16.09 Fair CLR 23.7 20.4 82% 76.28 0.0
29 02:35 Calm 16.09 Fair CLR 23.8 20.4 81% 76.28 0.0
29 02:15 Calm 16.09 Fair CLR 23.7 20.3 81% 76.28 0.0
29 01:55 Calm 16.09 Fair CLR 23.5 20.6 84% 76.28 0.0
29 01:35 Calm 16.09 Fair CLR 24.3 20.4 79% 25 76.28 0.0
29 01:15 Calm 16.09 Fair CLR 24.7 20.4 77% 25 76.28 0.0
29 00:55 Calm 16.09 Fair CLR 24.7 20.3 35.5 24.6 77% 25 76.28 0.0
29 00:35 Calm 16.09 Fair CLR 25 20.2 75% 26 76.28 0.0
29 00:15 Calm 16.09 Fair CLR 25.3 20.1 73% 26 76.28 0.0
28 23:55 Calm 16.09 Fair CLR 25.6 20.1 72% 27 76.28 0.0
28 23:35 Calm 16.09 Partly Cloudy SCT110 25 20.4 76% 26 76.28 0.0
28 23:15 Calm 16.09 Fair CLR 26 20.1 70% 27 76.28 0.0
28 22:55 Calm 16.09 Fair CLR 26.7 20 67% 28 76.28 0.0
28 22:35 Calm 16.09 Fair CLR 26.8 20 66% 28 76.25 0.0
28 22:15 Calm 16.09 Fair CLR 27.5 19.5 62% 29 76.23 0.0
28 21:55 Calm 16.09 Fair CLR 27.6 19.9 63% 29 76.23 0.0
28 21:35 Calm 16.09 Fair CLR 28.3 19.4 59% 30 76.2 0.0
28 21:15 Calm 16.09 Fair CLR 28.9 19.1 55% 30 76.17 0.0
28 20:55 Calm 16.09 Fair CLR 30 19 52% 31 76.15 0.0
28 20:35 Calm 16.09 Fair CLR 30.8 18.6 48% 32 76.12 0.0
28 20:15 Calm 16.09 Fair CLR 32 17.6 42% 33 76.12 0.0
28 19:55 Calm 16.09 Fair CLR 31.6 17.2 42% 32 76.12 0.0
28 19:35 Calm 16.09 Fair CLR 33.1 16.7 37% 33 76.1 0.0
28 19:15 NE 6 16.09 Fair CLR 34.6 16.4 34% 35 76.1 0.0
28 18:55 NE 7 16.09 Fair CLR 35.6 15.9 38.5 34.6 31% 36 76.1 0.0
28 18:35 NE 9 16.09 Fair CLR 36.2 15.4 29% 36 76.07 0.0
28 18:15 NE 7 16.09 Fair CLR 36.7 15.8 29% 37 76.07 0.0
28 17:55 NE 7 16.09 Fair CLR 37.3 15.8 28% 38 76.1 0.0
28 17:35 NE 9 16.09 Fair CLR 37.2 16.6 29% 38 76.07 0.0
28 17:15 NE 7 16.09 Fair CLR 37.2 16 28% 38 76.07 0.0
28 16:55 NE 9 16.09 Partly Cloudy SCT085 36.9 16.8 30% 38 76.07 0.0
28 16:35 NE 13 16.09 Partly Cloudy SCT110 37.1 17.5 31% 38 76.1 0.0
28 16:15 NE 9 16.09 Mostly Cloudy SCT080 BKN110 36.2 16.9 32% 37 76.12 0.0
28 15:55 SE 6 16.09 Partly Cloudy SCT080 38.1 17.6 30% 40 76.12 0.0
28 15:35 NE 7 16.09 Fair CLR 35.6 17.8 35% 37 76.17 0.0
28 15:15 NE 11 16.09 Fair CLR 36.3 17.9 34% 38 76.2 0.0
28 14:55 NE 9 16.09 Partly Cloudy SCT085 SCT110 36 18.2 35% 38 76.23 0.0
28 14:35 N 13 16.09 Mostly Cloudy SCT070 BKN085 BKN110 37.7 18.1 32% 39 76.23 0.0
28 14:15 NE 7 16.09 Partly Cloudy SCT070 37.3 18.6 33% 39 76.25 0.0
28 13:55 E 6 16.09 Partly Cloudy SCT070 37.1 18.2 33% 39 76.25 0.0
28 13:35 E 9 16.09 Partly Cloudy SCT070 36.6 18.8 35% 39 76.28 0.0
28 13:10 NW 6 16.09 Fair CLR 35.6 19.9 40% 38 76.3 0.0
28 12:55 SE 11 16.09 Partly Cloudy SCT050 35.4 21.1 35.7 21.4 43% 39 76.3 0.0
Date Time (cdt) Wind (kph) Vis. (km) Weather Sky Cond. Air Dwpt Max. Min. Relative Humidity Wind Chill (°C) Heat Index (°C) altimeter (cm) sea level (mb) 1 hr 3 hr 6 hr
6 hour
Temperature (ºC) Pressure Precipitation (cm)